createdAt,value
2023-03-26T00:04:26.127Z,6.30
2023-03-26T00:09:33.012Z,9.10
2023-03-26T00:14:40.964Z,6.30
2023-03-26T00:19:47.844Z,3.90
2023-03-26T00:24:56.958Z,14.90
2023-03-26T00:30:05.190Z,10.30
2023-03-26T00:35:14.084Z,7.30
2023-03-26T00:40:21.517Z,4.30
2023-03-26T00:45:28.563Z,4.50
2023-03-26T00:50:35.635Z,6.80
2023-03-26T00:55:43.043Z,10.70
2023-03-26T01:00:52.441Z,7.00
2023-03-26T01:06:04.722Z,9.20
2023-03-26T01:11:15.389Z,7.30
2023-03-26T01:16:27.723Z,5.10
2023-03-26T01:21:35.383Z,7.30
2023-03-26T01:27:04.397Z,8.00
2023-03-26T01:32:23.050Z,5.30
2023-03-26T01:37:38.676Z,5.20
2023-03-26T01:42:55.409Z,10.50
2023-03-26T01:48:02.925Z,6.00
2023-03-26T01:53:12.654Z,4.90
2023-03-26T01:58:26.588Z,5.30
2023-03-26T02:03:38.650Z,4.40
2023-03-26T02:08:52.885Z,4.80
2023-03-26T02:14:00.777Z,4.90
2023-03-26T02:19:15.643Z,5.60
2023-03-26T02:24:25.570Z,7.00
2023-03-26T02:29:37.750Z,5.60
2023-03-26T02:34:45.347Z,4.20
2023-03-26T02:39:52.818Z,5.80
2023-03-26T02:45:09.646Z,6.80
2023-03-26T02:50:36.998Z,6.20
2023-03-26T02:56:11.040Z,5.70
2023-03-26T03:01:23.518Z,9.80
2023-03-26T03:06:33.259Z,5.20
2023-03-26T03:11:41.568Z,7.90
2023-03-26T03:16:48.876Z,7.10
2023-03-26T03:21:55.750Z,5.70
2023-03-26T03:27:02.714Z,3.90
2023-03-26T03:32:14.662Z,6.10
2023-03-26T03:37:27.055Z,5.40
2023-03-26T03:42:35.145Z,7.90
2023-03-26T03:47:43.560Z,7.10
2023-03-26T03:52:51.434Z,10.00
2023-03-26T03:57:58.608Z,7.70
2023-03-26T04:03:06.740Z,2.90
2023-03-26T04:08:14.600Z,6.90
2023-03-26T04:13:28.113Z,5.00
2023-03-26T04:18:36.766Z,5.60
2023-03-26T04:23:49.470Z,5.90
2023-03-26T04:29:17.178Z,7.10
2023-03-26T04:34:26.376Z,7.50
2023-03-26T04:39:45.054Z,2.80
2023-03-26T04:45:23.169Z,5.80
2023-03-26T04:50:35.851Z,4.10
2023-03-26T04:55:48.998Z,4.50
2023-03-26T05:01:10.429Z,6.80
2023-03-26T05:06:21.903Z,3.30
2023-03-26T05:11:29.591Z,2.90
2023-03-26T05:16:37.604Z,2.40
2023-03-26T05:21:50.815Z,5.00
2023-03-26T05:26:57.826Z,4.20
2023-03-26T05:32:05.740Z,4.40
2023-03-26T05:37:13.894Z,1.80
2023-03-26T05:42:41.298Z,3.00
2023-03-26T05:48:17.530Z,2.10
2023-03-26T05:53:25.595Z,1.70
2023-03-26T05:58:52.155Z,2.10
2023-03-26T06:04:18.178Z,6.10
2023-03-26T06:09:53.519Z,2.70
2023-03-26T06:15:00.887Z,3.60
2023-03-26T06:20:28.330Z,4.90
2023-03-26T06:25:35.884Z,4.00
2023-03-26T06:31:15.039Z,2.80
2023-03-26T06:36:52.729Z,1.90
2023-03-26T06:42:01.121Z,2.60
2023-03-26T06:47:25.538Z,9.50
2023-03-26T06:52:58.607Z,4.60
2023-03-26T06:58:25.845Z,6.80
2023-03-26T07:03:51.551Z,4.40
2023-03-26T07:09:33.237Z,3.60
2023-03-26T07:15:00.822Z,5.50
2023-03-26T07:20:40.572Z,4.20
2023-03-26T07:25:49.836Z,5.40
2023-03-26T07:31:27.291Z,3.20
2023-03-26T07:36:58.595Z,3.80
2023-03-26T07:42:37.592Z,2.50
2023-03-26T07:48:19.021Z,2.10
2023-03-26T07:53:46.893Z,2.60
2023-03-26T07:59:26.216Z,2.80
2023-03-26T08:04:57.329Z,3.90
2023-03-26T08:10:38.381Z,5.50
2023-03-26T08:15:54.545Z,5.00
2023-03-26T08:21:06.304Z,5.20
2023-03-26T08:26:20.347Z,3.70
2023-03-26T08:31:34.074Z,3.40
2023-03-26T08:36:41.285Z,4.50
2023-03-26T08:42:23.097Z,2.90
2023-03-26T08:53:26.671Z,2.90
2023-03-26T08:59:08.724Z,3.30
2023-03-26T09:04:36.455Z,3.90
2023-03-26T09:10:07.108Z,2.60
2023-03-26T09:15:29.693Z,7.40
2023-03-26T09:21:07.200Z,3.00
2023-03-26T09:26:28.071Z,4.00
2023-03-26T09:32:32.213Z,2.00
2023-03-26T09:37:58.624Z,3.60
2023-03-26T09:43:33.503Z,3.60
2023-03-26T09:48:57.643Z,2.60
2023-03-26T09:54:21.941Z,2.00
2023-03-26T10:00:10.956Z,2.30
2023-03-26T10:05:41.441Z,7.70
2023-03-26T10:10:56.570Z,5.70
2023-03-26T10:16:14.005Z,4.30
2023-03-26T10:21:31.421Z,5.60
2023-03-26T10:27:09.348Z,4.80
2023-03-26T10:32:32.142Z,4.20
2023-03-26T10:43:24.210Z,6.10
2023-03-26T10:48:45.471Z,3.40
2023-03-26T10:53:59.935Z,4.50
2023-03-26T10:59:13.130Z,5.30
2023-03-26T11:04:31.585Z,8.90
2023-03-26T11:09:44.944Z,4.70
2023-03-26T11:14:59.580Z,12.00
2023-03-26T11:20:12.979Z,5.60
2023-03-26T11:25:37.054Z,9.60
2023-03-26T11:30:49.713Z,6.30
2023-03-26T11:36:02.485Z,6.40
2023-03-26T11:41:16.244Z,8.00
2023-03-26T11:46:44.932Z,5.80
2023-03-26T11:51:53.483Z,5.50
2023-03-26T11:57:05.568Z,4.90
2023-03-26T12:02:29.678Z,8.70
2023-03-26T12:07:37.880Z,6.40
2023-03-26T12:12:47.237Z,5.20
2023-03-26T12:17:58.206Z,6.60
2023-03-26T12:23:08.308Z,5.70
2023-03-26T12:28:21.576Z,6.10
2023-03-26T12:33:34.287Z,9.50
2023-03-26T12:38:42.566Z,7.20
2023-03-26T12:44:49.205Z,6.80
2023-03-26T12:49:18.962Z,7.80
2023-03-26T12:54:42.569Z,4.30
2023-03-26T13:00:14.087Z,4.40
2023-03-26T13:05:43.227Z,3.50
2023-03-26T13:10:56.411Z,3.60
2023-03-26T13:16:10.101Z,4.10
2023-03-26T13:21:28.652Z,5.20
2023-03-26T13:26:49.949Z,4.40
2023-03-26T13:37:16.098Z,4.80
2023-03-26T13:42:37.737Z,7.70
2023-03-26T13:47:50.601Z,4.50
2023-03-26T13:53:00.562Z,4.10
2023-03-26T13:58:17.976Z,3.60
2023-03-26T14:03:31.911Z,7.20
2023-03-26T14:08:44.597Z,3.50
2023-03-26T14:13:57.976Z,5.60
2023-03-26T14:19:32.158Z,5.30
2023-03-26T14:24:59.185Z,3.50
2023-03-26T14:30:30.065Z,4.30
2023-03-26T14:35:42.664Z,5.50
2023-03-26T14:41:03.253Z,3.40
2023-03-26T14:46:29.339Z,6.30
2023-03-26T14:51:59.610Z,5.00
2023-03-26T14:57:33.607Z,3.60
2023-03-26T15:03:22.268Z,6.00
2023-03-26T15:09:09.094Z,7.10
2023-03-26T15:14:43.717Z,7.90
2023-03-26T15:20:20.803Z,6.40
2023-03-26T15:25:53.100Z,5.80
2023-03-26T15:31:18.832Z,5.30
2023-03-26T15:37:12.043Z,7.70
2023-03-26T15:42:29.730Z,6.90
2023-03-26T15:47:49.880Z,6.50
2023-03-26T15:53:06.777Z,6.40
2023-03-26T15:58:22.786Z,9.20
2023-03-26T16:03:41.201Z,8.60
2023-03-26T16:09:00.704Z,2.80
2023-03-26T16:14:18.055Z,3.90
2023-03-26T16:19:53.340Z,9.40
2023-03-26T16:25:36.780Z,61.30
2023-03-26T16:30:46.248Z,39.20
2023-03-26T16:36:18.500Z,27.10
2023-03-26T16:41:30.550Z,46.60
2023-03-26T16:52:09.619Z,28.60
2023-03-26T16:57:30.642Z,44.90
2023-03-26T17:02:51.387Z,38.30
2023-03-26T17:08:06.808Z,37.80
2023-03-26T17:13:23.367Z,28.10
2023-03-26T17:18:42.656Z,20.90
2023-03-26T17:24:07.041Z,18.60
2023-03-26T17:29:53.130Z,16.90
2023-03-26T17:35:07.594Z,30.90
2023-03-26T17:40:48.170Z,21.10
2023-03-26T17:46:02.800Z,67.50
2023-03-26T17:51:28.110Z,65.20
2023-03-26T17:56:38.898Z,54.10
2023-03-26T18:01:48.537Z,61.30
2023-03-26T18:07:17.367Z,38.00
2023-03-26T18:12:51.572Z,25.00
2023-03-26T18:18:10.514Z,54.50
2023-03-26T18:23:26.375Z,35.80
2023-03-26T18:28:42.228Z,39.90
2023-03-26T18:33:50.950Z,45.70
2023-03-26T18:39:01.421Z,52.10
2023-03-26T18:44:14.020Z,35.70
2023-03-26T18:49:21.707Z,26.40
2023-03-26T18:54:34.966Z,17.30
2023-03-26T18:59:46.299Z,18.30
2023-03-26T19:04:54.441Z,18.20
2023-03-26T19:10:03.039Z,21.90
2023-03-26T19:15:14.711Z,18.30
2023-03-26T19:25:34.325Z,11.70
2023-03-26T19:30:43.921Z,15.10
2023-03-26T19:36:03.607Z,13.60
2023-03-26T19:41:22.689Z,13.00
2023-03-26T19:46:53.624Z,10.50
2023-03-26T19:57:20.049Z,12.50
2023-03-26T20:02:27.834Z,11.50
2023-03-26T20:07:36.450Z,7.20
2023-03-26T20:12:43.602Z,11.20
2023-03-26T20:17:52.406Z,11.00
2023-03-26T20:22:59.651Z,13.40
2023-03-26T20:28:09.128Z,11.20
2023-03-26T20:33:20.464Z,12.50
2023-03-26T20:38:39.106Z,12.20
2023-03-26T20:43:46.692Z,10.80
2023-03-26T20:48:55.449Z,10.50
2023-03-26T20:54:03.322Z,10.70
2023-03-26T20:59:11.711Z,10.80
2023-03-26T21:04:20.054Z,14.60
2023-03-26T21:09:34.337Z,10.30
2023-03-26T21:14:44.085Z,13.10
2023-03-26T21:19:52.264Z,12.20
2023-03-26T21:25:11.805Z,9.90
2023-03-26T21:30:20.129Z,14.00
2023-03-26T21:35:28.627Z,16.40
2023-03-26T21:40:42.283Z,16.60
2023-03-26T21:45:54.153Z,16.00
2023-03-26T21:51:04.847Z,16.20
2023-03-26T21:56:24.274Z,13.30
2023-03-26T22:01:42.743Z,13.80
2023-03-26T22:06:58.139Z,13.40
2023-03-26T22:12:05.660Z,15.80
2023-03-26T22:17:12.644Z,28.40
2023-03-26T22:22:22.207Z,26.30
2023-03-26T22:27:29.166Z,25.30
2023-03-26T22:32:37.683Z,22.90
2023-03-26T22:37:45.164Z,18.80
2023-03-26T22:42:53.511Z,19.70
2023-03-26T22:48:04.616Z,18.40
2023-03-26T22:53:12.035Z,17.00
2023-03-26T22:58:19.223Z,14.60
2023-03-26T23:03:34.781Z,18.30
2023-03-26T23:08:42.973Z,13.40
2023-03-26T23:13:50.643Z,15.70
2023-03-26T23:18:57.668Z,11.90
2023-03-26T23:24:05.105Z,12.90
2023-03-26T23:29:13.926Z,14.60
2023-03-26T23:34:21.725Z,13.90
2023-03-26T23:39:28.721Z,18.20
2023-03-26T23:44:39.389Z,14.50
2023-03-26T23:49:46.614Z,10.20
2023-03-26T23:54:53.576Z,9.90
